Esplugues de Llobregat, Spain
Current Conditions -  °F | °C
As of 4:00 AM on Wednesday 22 Oct 2014 (Local Time) from LEBL Reporting Station
Haze Haze  
Wind Chill: 18°   Ceiling: Unl
Heat Index: 18°   Visibility: 3mi
Dew Point: 17°   Wind: 5mph
Humidity: 94%   Direction: 340°NNW
Pressure: 30.09"   Gusts: NA
Location:  41.38°N, 2.09°E
Report Text: LEBL 220200Z 34004KT 300V010 5000 BR FEW020 18/17 Q1019 NOSIG
Loading
Personal Weather Stations






























Interactive Weather Map
Tropical Storm Tracking
New forecast layout! Learn more

10-Day Weather Forecast

Advertisements
Track Severe Weather on mobile